CheckWX is a tool to help pilots better visualize weather data.  It is not intended as a substitute for an official pre-flight weather briefing.

03:00:40 UTC

KFAM METAR
Farmington Regional Airport
Farmington, Missouri, USA
Current

1 hour ago

KFAM 180156Z AUTO 30010G18KT 10SM OVC029 M01/M06 A2999 RMK AO2 SLP164 T10111061 FZRANO
Observed
Feb-18 @ 01:56 UTC
Wind
  • 300° at 10 KTS
  • Gusting to 18 KTS
Visibility
10 SM
Flight Rules
MVFR
Cloud Levels
  • Overcast at 2,900' AGL
Temperature
-1°C / 30°F
Dewpoint
-6°C / 21°F
Humidity
69%
Altimeter
29.99" Hg
Pressure
1016.4 hPa
Previous

2 hours ago

KFAM 180056Z AUTO 30010KT 10SM OVC029 M01/M06 A2997 RMK AO2 SLP156 T10061056 FZRANO
Observed
Feb-18 @ 00:56 UTC
Wind
  • 300° at 10 KTS
Visibility
10 SM
Flight Rules
MVFR
Cloud Levels
  • Overcast at 2,900' AGL
Temperature
-1°C / 30°F
Dewpoint
-6°C / 21°F
Humidity
69%
Altimeter
29.97" Hg
Pressure
1015.6 hPa
Previous

3 hours ago

KFAM 180010Z AUTO 32011KT 10SM OVC029 00/M05 A2993 RMK AO2 FZRANO
Observed
Feb-18 @ 00:10 UTC
Wind
  • 320° at 11 KTS
Visibility
10 SM
Flight Rules
MVFR
Cloud Levels
  • Overcast at 2,900' AGL
Temperature
C / 32°F
Dewpoint
-5°C / 23°F
Humidity
69%
Altimeter
29.93" Hg
Pressure
1013.52 hPa